sensor_id;sensor_type;location;lat;lon;timestamp;temperature;humidity
2453;DHT22;63678;47.994;7.854;2023-04-16T00:00:21;9.60;99.90
2453;DHT22;63678;47.994;7.854;2023-04-16T00:05:26;9.60;99.90
2453;DHT22;63678;47.994;7.854;2023-04-16T00:07:58;9.60;99.90
2453;DHT22;63678;47.994;7.854;2023-04-16T00:10:31;9.70;99.90
2453;DHT22;63678;47.994;7.854;2023-04-16T00:13:03;9.70;99.90
2453;DHT22;63678;47.994;7.854;2023-04-16T00:15:35;9.60;99.90
2453;DHT22;63678;47.994;7.854;2023-04-16T00:18:07;9.60;99.90
2453;DHT22;63678;47.994;7.854;2023-04-16T00:20:39;9.50;99.90
2453;DHT22;63678;47.994;7.854;2023-04-16T00:23:11;9.60;99.90
2453;DHT22;63678;47.994;7.854;2023-04-16T00:25:44;9.60;99.90
2453;DHT22;63678;47.994;7.854;2023-04-16T00:28:16;9.60;99.90
2453;DHT22;63678;47.994;7.854;2023-04-16T00:33:22;9.60;99.90
2453;DHT22;63678;47.994;7.854;2023-04-16T00:35:54;9.60;99.90
2453;DHT22;63678;47.994;7.854;2023-04-16T00:43:34;9.70;99.90
2453;DHT22;63678;47.994;7.854;2023-04-16T00:46:07;9.70;99.90
2453;DHT22;63678;47.994;7.854;2023-04-16T00:48:39;9.60;99.90
2453;DHT22;63678;47.994;7.854;2023-04-16T00:51:12;9.60;99.90
2453;DHT22;63678;47.994;7.854;2023-04-16T00:53:45;9.60;99.90
2453;DHT22;63678;47.994;7.854;2023-04-16T00:56:18;9.60;99.90
2453;DHT22;63678;47.994;7.854;2023-04-16T00:58:53;9.60;99.90
2453;DHT22;63678;47.994;7.854;2023-04-16T01:01:27;9.50;99.90
2453;DHT22;63678;47.994;7.854;2023-04-16T01:03:59;9.50;99.90
2453;DHT22;63678;47.994;7.854;2023-04-16T01:06:32;9.60;99.90
2453;DHT22;63678;47.994;7.854;2023-04-16T01:09:04;9.60;99.90
2453;DHT22;63678;47.994;7.854;2023-04-16T01:11:39;9.60;99.90
2453;DHT22;63678;47.994;7.854;2023-04-16T01:14:11;9.60;99.90
2453;DHT22;63678;47.994;7.854;2023-04-16T01:16:44;9.60;99.90
2453;DHT22;63678;47.994;7.854;2023-04-16T01:19:17;9.60;99.90
2453;DHT22;63678;47.994;7.854;2023-04-16T01:21:49;9.40;99.90
2453;DHT22;63678;47.994;7.854;2023-04-16T01:24:44;9.60;99.90
2453;DHT22;63678;47.994;7.854;2023-04-16T01:27:34;9.60;99.90
2453;DHT22;63678;47.994;7.854;2023-04-16T01:33:04;9.50;99.90
2453;DHT22;63678;47.994;7.854;2023-04-16T01:35:37;9.60;99.90
2453;DHT22;63678;47.994;7.854;2023-04-16T01:45:51;9.60;99.90
2453;DHT22;63678;47.994;7.854;2023-04-16T01:48:41;9.60;99.90
2453;DHT22;63678;47.994;7.854;2023-04-16T01:51:14;9.60;99.90
2453;DHT22;63678;47.994;7.854;2023-04-16T01:53:46;9.60;99.90
2453;DHT22;63678;47.994;7.854;2023-04-16T01:56:20;9.60;99.90
2453;DHT22;63678;47.994;7.854;2023-04-16T01:58:52;9.50;99.90
2453;DHT22;63678;47.994;7.854;2023-04-16T02:01:25;9.60;99.90
2453;DHT22;63678;47.994;7.854;2023-04-16T02:03:59;9.60;99.90
2453;DHT22;63678;47.994;7.854;2023-04-16T02:06:51;9.50;99.90
2453;DHT22;63678;47.994;7.854;2023-04-16T02:09:24;9.50;99.90
2453;DHT22;63678;47.994;7.854;2023-04-16T02:11:57;9.40;99.90
2453;DHT22;63678;47.994;7.854;2023-04-16T02:14:30;9.50;99.90
2453;DHT22;63678;47.994;7.854;2023-04-16T02:17:03;9.50;99.90
2453;DHT22;63678;47.994;7.854;2023-04-16T02:19:41;9.50;99.90
2453;DHT22;63678;47.994;7.854;2023-04-16T02:24:49;9.50;99.90
2453;DHT22;63678;47.994;7.854;2023-04-16T02:27:22;9.50;99.90
2453;DHT22;63678;47.994;7.854;2023-04-16T02:32:36;9.50;99.90
2453;DHT22;63678;47.994;7.854;2023-04-16T02:35:09;9.40;99.90
2453;DHT22;63678;47.994;7.854;2023-04-16T02:37:43;9.50;99.90
2453;DHT22;63678;47.994;7.854;2023-04-16T02:40:15;9.50;99.90
2453;DHT22;63678;47.994;7.854;2023-04-16T02:42:48;9.50;99.90
2453;DHT22;63678;47.994;7.854;2023-04-16T02:45:20;9.40;99.90
2453;DHT22;63678;47.994;7.854;2023-04-16T02:47:53;9.40;99.90
2453;DHT22;63678;47.994;7.854;2023-04-16T02:53:19;9.40;99.90
2453;DHT22;63678;47.994;7.854;2023-04-16T02:55:55;9.40;99.90
2453;DHT22;63678;47.994;7.854;2023-04-16T02:58:30;9.40;99.90
2453;DHT22;63678;47.994;7.854;2023-04-16T03:01:03;9.40;99.90
2453;DHT22;63678;47.994;7.854;2023-04-16T03:03:54;9.50;99.90
2453;DHT22;63678;47.994;7.854;2023-04-16T03:06:26;9.40;99.90
2453;DHT22;63678;47.994;7.854;2023-04-16T03:08:59;9.30;99.90
2453;DHT22;63678;47.994;7.854;2023-04-16T03:11:31;9.20;99.90
2453;DHT22;63678;47.994;7.854;2023-04-16T03:14:03;9.10;99.90
2453;DHT22;63678;47.994;7.854;2023-04-16T03:22:03;9.30;99.90
2453;DHT22;63678;47.994;7.854;2023-04-16T03:27:09;9.40;99.90
2453;DHT22;63678;47.994;7.854;2023-04-16T03:34:48;9.20;99.90
2453;DHT22;63678;47.994;7.854;2023-04-16T03:37:20;9.80;99.90
2453;DHT22;63678;47.994;7.854;2023-04-16T03:39:53;10.10;99.90
2453;DHT22;63678;47.994;7.854;2023-04-16T03:50:09;9.30;99.90
2453;DHT22;63678;47.994;7.854;2023-04-16T03:52:43;9.20;99.90
2453;DHT22;63678;47.994;7.854;2023-04-16T03:57:51;9.10;99.90
2453;DHT22;63678;47.994;7.854;2023-04-16T04:00:25;9.10;99.90
2453;DHT22;63678;47.994;7.854;2023-04-16T04:03:05;8.00;99.90
2453;DHT22;63678;47.994;7.854;2023-04-16T04:05:39;9.30;99.90
2453;DHT22;63678;47.994;7.854;2023-04-16T04:08:19;9.30;99.90
2453;DHT22;63678;47.994;7.854;2023-04-16T04:10:51;9.30;99.90
2453;DHT22;63678;47.994;7.854;2023-04-16T04:16:00;9.20;99.90
2453;DHT22;63678;47.994;7.854;2023-04-16T04:18:33;9.20;99.90
2453;DHT22;63678;47.994;7.854;2023-04-16T04:21:27;9.30;99.90
2453;DHT22;63678;47.994;7.854;2023-04-16T04:24:00;9.30;99.90
2453;DHT22;63678;47.994;7.854;2023-04-16T04:26:54;9.30;99.90
2453;DHT22;63678;47.994;7.854;2023-04-16T04:29:26;9.30;99.90
2453;DHT22;63678;47.994;7.854;2023-04-16T04:31:59;9.40;99.90
2453;DHT22;63678;47.994;7.854;2023-04-16T04:37:05;9.40;99.90
2453;DHT22;63678;47.994;7.854;2023-04-16T04:39:37;9.40;99.90
2453;DHT22;63678;47.994;7.854;2023-04-16T04:42:12;9.30;99.90
2453;DHT22;63678;47.994;7.854;2023-04-16T04:44:44;9.40;99.90
2453;DHT22;63678;47.994;7.854;2023-04-16T04:47:17;9.40;99.90
2453;DHT22;63678;47.994;7.854;2023-04-16T04:49:49;9.40;99.90
2453;DHT22;63678;47.994;7.854;2023-04-16T04:52:21;9.40;99.90
2453;DHT22;63678;47.994;7.854;2023-04-16T04:54:55;9.30;99.90
2453;DHT22;63678;47.994;7.854;2023-04-16T04:57:28;9.40;99.90
2453;DHT22;63678;47.994;7.854;2023-04-16T05:00:01;9.30;99.90
2453;DHT22;63678;47.994;7.854;2023-04-16T05:02:44;9.30;99.90
2453;DHT22;63678;47.994;7.854;2023-04-16T05:05:18;9.30;99.90
2453;DHT22;63678;47.994;7.854;2023-04-16T05:07:51;9.40;99.90
2453;DHT22;63678;47.994;7.854;2023-04-16T05:10:23;9.30;99.90
2453;DHT22;63678;47.994;7.854;2023-04-16T05:12:55;9.30;99.90
2453;DHT22;63678;47.994;7.854;2023-04-16T05:15:28;9.40;99.90
2453;DHT22;63678;47.994;7.854;2023-04-16T05:18:00;9.40;99.90
2453;DHT22;63678;47.994;7.854;2023-04-16T05:20:33;9.30;99.90
2453;DHT22;63678;47.994;7.854;2023-04-16T05:23:05;9.30;99.90
2453;DHT22;63678;47.994;7.854;2023-04-16T05:28:10;9.30;99.90
2453;DHT22;63678;47.994;7.854;2023-04-16T05:33:35;9.40;99.90
2453;DHT22;63678;47.994;7.854;2023-04-16T05:38:42;9.50;99.90
2453;DHT22;63678;47.994;7.854;2023-04-16T05:41:14;9.50;99.90
2453;DHT22;63678;47.994;7.854;2023-04-16T05:43:46;9.40;99.90
2453;DHT22;63678;47.994;7.854;2023-04-16T05:46:18;9.40;99.90
2453;DHT22;63678;47.994;7.854;2023-04-16T05:51:23;9.30;99.90
2453;DHT22;63678;47.994;7.854;2023-04-16T05:53:58;9.40;99.90
2453;DHT22;63678;47.994;7.854;2023-04-16T05:56:33;9.30;99.90
2453;DHT22;63678;47.994;7.854;2023-04-16T05:59:05;9.30;99.90
2453;DHT22;63678;47.994;7.854;2023-04-16T06:01:38;9.20;99.90
2453;DHT22;63678;47.994;7.854;2023-04-16T06:04:10;9.20;99.90
2453;DHT22;63678;47.994;7.854;2023-04-16T06:06:46;9.20;99.90
2453;DHT22;63678;47.994;7.854;2023-04-16T06:09:18;9.20;99.90
2453;DHT22;63678;47.994;7.854;2023-04-16T06:11:50;9.20;99.90
2453;DHT22;63678;47.994;7.854;2023-04-16T06:14:23;9.30;99.90
2453;DHT22;63678;47.994;7.854;2023-04-16T06:16:55;9.30;99.90
2453;DHT22;63678;47.994;7.854;2023-04-16T06:19:27;9.40;99.90
2453;DHT22;63678;47.994;7.854;2023-04-16T06:24:33;9.40;99.90
2453;DHT22;63678;47.994;7.854;2023-04-16T06:27:05;9.50;99.90
2453;DHT22;63678;47.994;7.854;2023-04-16T06:29:59;9.40;99.90
2453;DHT22;63678;47.994;7.854;2023-04-16T06:32:52;9.40;99.90
2453;DHT22;63678;47.994;7.854;2023-04-16T06:35:25;9.40;99.90
2453;DHT22;63678;47.994;7.854;2023-04-16T06:37:57;9.40;99.90
2453;DHT22;63678;47.994;7.854;2023-04-16T06:40:29;9.40;99.90
2453;DHT22;63678;47.994;7.854;2023-04-16T06:43:02;9.50;99.90
2453;DHT22;63678;47.994;7.854;2023-04-16T06:45:34;9.40;99.90
2453;DHT22;63678;47.994;7.854;2023-04-16T06:48:07;9.40;99.90
2453;DHT22;63678;47.994;7.854;2023-04-16T06:50:40;9.40;99.90
2453;DHT22;63678;47.994;7.854;2023-04-16T06:55:45;9.40;99.90
2453;DHT22;63678;47.994;7.854;2023-04-16T06:58:17;9.40;99.90
2453;DHT22;63678;47.994;7.854;2023-04-16T07:00:50;9.50;99.90
2453;DHT22;63678;47.994;7.854;2023-04-16T07:03:22;9.40;99.90
2453;DHT22;63678;47.994;7.854;2023-04-16T07:06:15;9.40;99.90
2453;DHT22;63678;47.994;7.854;2023-04-16T07:08:48;9.30;99.90
2453;DHT22;63678;47.994;7.854;2023-04-16T07:11:20;9.40;99.90
2453;DHT22;63678;47.994;7.854;2023-04-16T07:13:56;9.30;99.90
2453;DHT22;63678;47.994;7.854;2023-04-16T07:19:02;9.30;99.90
2453;DHT22;63678;47.994;7.854;2023-04-16T07:21:34;9.30;99.90
2453;DHT22;63678;47.994;7.854;2023-04-16T07:24:07;9.20;99.90
2453;DHT22;63678;47.994;7.854;2023-04-16T07:26:40;9.20;99.90
2453;DHT22;63678;47.994;7.854;2023-04-16T07:29:12;9.20;99.90
2453;DHT22;63678;47.994;7.854;2023-04-16T07:31:45;9.20;99.90
2453;DHT22;63678;47.994;7.854;2023-04-16T07:34:18;9.30;99.90
2453;DHT22;63678;47.994;7.854;2023-04-16T07:39:23;9.30;99.90
2453;DHT22;63678;47.994;7.854;2023-04-16T07:41:55;9.30;99.90
2453;DHT22;63678;47.994;7.854;2023-04-16T07:44:28;9.30;99.90
2453;DHT22;63678;47.994;7.854;2023-04-16T07:47:00;9.40;99.90
2453;DHT22;63678;47.994;7.854;2023-04-16T07:52:31;9.50;99.90
2453;DHT22;63678;47.994;7.854;2023-04-16T07:55:04;10.80;99.90
2453;DHT22;63678;47.994;7.854;2023-04-16T07:57:38;10.20;99.90
2453;DHT22;63678;47.994;7.854;2023-04-16T08:00:11;9.90;99.90
2453;DHT22;63678;47.994;7.854;2023-04-16T08:02:45;9.70;99.90
2453;DHT22;63678;47.994;7.854;2023-04-16T08:07:54;9.40;99.90
2453;DHT22;63678;47.994;7.854;2023-04-16T08:10:26;9.40;99.90
2453;DHT22;63678;47.994;7.854;2023-04-16T08:13:02;9.40;99.90
2453;DHT22;63678;47.994;7.854;2023-04-16T08:18:28;9.30;99.90
2453;DHT22;63678;47.994;7.854;2023-04-16T08:21:00;9.30;99.90
2453;DHT22;63678;47.994;7.854;2023-04-16T08:23:32;9.30;99.90
2453;DHT22;63678;47.994;7.854;2023-04-16T08:31:58;9.40;99.90
2453;DHT22;63678;47.994;7.854;2023-04-16T08:34:30;9.40;99.90
2453;DHT22;63678;47.994;7.854;2023-04-16T08:39:36;9.30;99.90
2453;DHT22;63678;47.994;7.854;2023-04-16T08:42:30;9.30;99.90
2453;DHT22;63678;47.994;7.854;2023-04-16T08:45:17;9.30;99.90
2453;DHT22;63678;47.994;7.854;2023-04-16T08:48:10;9.20;99.90
2453;DHT22;63678;47.994;7.854;2023-04-16T08:50:43;9.20;99.90
2453;DHT22;63678;47.994;7.854;2023-04-16T08:53:17;9.20;99.90
2453;DHT22;63678;47.994;7.854;2023-04-16T08:55:58;9.30;99.90
2453;DHT22;63678;47.994;7.854;2023-04-16T08:58:35;9.30;99.90
2453;DHT22;63678;47.994;7.854;2023-04-16T09:01:27;9.30;99.90
2453;DHT22;63678;47.994;7.854;2023-04-16T09:04:01;9.30;99.90
2453;DHT22;63678;47.994;7.854;2023-04-16T09:06:35;9.30;99.90
2453;DHT22;63678;47.994;7.854;2023-04-16T09:09:11;9.40;99.90
2453;DHT22;63678;47.994;7.854;2023-04-16T09:11:44;9.30;99.90
2453;DHT22;63678;47.994;7.854;2023-04-16T09:14:17;9.30;99.90
2453;DHT22;63678;47.994;7.854;2023-04-16T09:16:50;9.30;99.90
2453;DHT22;63678;47.994;7.854;2023-04-16T09:19:24;9.30;99.90
2453;DHT22;63678;47.994;7.854;2023-04-16T09:21:56;9.30;99.90
2453;DHT22;63678;47.994;7.854;2023-04-16T09:24:28;9.40;99.90
2453;DHT22;63678;47.994;7.854;2023-04-16T09:27:01;9.40;99.90
2453;DHT22;63678;47.994;7.854;2023-04-16T09:29:39;9.30;99.90
2453;DHT22;63678;47.994;7.854;2023-04-16T09:32:11;9.30;99.90
2453;DHT22;63678;47.994;7.854;2023-04-16T09:34:57;9.30;99.90
2453;DHT22;63678;47.994;7.854;2023-04-16T09:40:04;9.30;99.90
2453;DHT22;63678;47.994;7.854;2023-04-16T09:42:36;9.30;99.90
2453;DHT22;63678;47.994;7.854;2023-04-16T09:47:43;9.20;99.90
2453;DHT22;63678;47.994;7.854;2023-04-16T09:50:18;9.30;99.90
2453;DHT22;63678;47.994;7.854;2023-04-16T09:52:51;9.30;99.90
2453;DHT22;63678;47.994;7.854;2023-04-16T09:55:26;9.30;99.90
2453;DHT22;63678;47.994;7.854;2023-04-16T09:58:01;9.30;99.90
2453;DHT22;63678;47.994;7.854;2023-04-16T10:00:33;9.30;99.90
2453;DHT22;63678;47.994;7.854;2023-04-16T10:03:13;9.30;99.90
2453;DHT22;63678;47.994;7.854;2023-04-16T10:10:51;9.40;99.90
2453;DHT22;63678;47.994;7.854;2023-04-16T10:13:24;9.40;99.90
2453;DHT22;63678;47.994;7.854;2023-04-16T10:16:02;9.50;99.90
2453;DHT22;63678;47.994;7.854;2023-04-16T10:18:39;9.40;99.90
2453;DHT22;63678;47.994;7.854;2023-04-16T10:23:46;9.40;99.90
2453;DHT22;63678;47.994;7.854;2023-04-16T10:26:20;9.30;99.90
2453;DHT22;63678;47.994;7.854;2023-04-16T10:31:26;9.20;99.90
2453;DHT22;63678;47.994;7.854;2023-04-16T10:33:59;9.20;99.90
2453;DHT22;63678;47.994;7.854;2023-04-16T10:36:35;9.30;99.90
2453;DHT22;63678;47.994;7.854;2023-04-16T10:39:09;9.30;99.90
2453;DHT22;63678;47.994;7.854;2023-04-16T10:41:48;9.30;99.90
2453;DHT22;63678;47.994;7.854;2023-04-16T10:44:23;9.30;99.90
2453;DHT22;63678;47.994;7.854;2023-04-16T10:46:56;9.40;99.90
2453;DHT22;63678;47.994;7.854;2023-04-16T10:49:28;9.40;99.90
2453;DHT22;63678;47.994;7.854;2023-04-16T10:52:10;9.40;99.90
2453;DHT22;63678;47.994;7.854;2023-04-16T10:54:45;9.40;99.90
2453;DHT22;63678;47.994;7.854;2023-04-16T10:59:54;9.50;99.90
2453;DHT22;63678;47.994;7.854;2023-04-16T11:02:27;9.60;99.90
2453;DHT22;63678;47.994;7.854;2023-04-16T11:05:00;9.50;99.90
2453;DHT22;63678;47.994;7.854;2023-04-16T11:07:34;9.60;99.90
2453;DHT22;63678;47.994;7.854;2023-04-16T11:10:06;9.70;99.90
2453;DHT22;63678;47.994;7.854;2023-04-16T11:12:47;9.70;99.90
2453;DHT22;63678;47.994;7.854;2023-04-16T11:15:19;9.80;99.90
2453;DHT22;63678;47.994;7.854;2023-04-16T11:17:52;9.90;99.90
2453;DHT22;63678;47.994;7.854;2023-04-16T11:20:26;9.80;99.90
2453;DHT22;63678;47.994;7.854;2023-04-16T11:25:31;10.10;99.90
2453;DHT22;63678;47.994;7.854;2023-04-16T11:28:05;10.20;99.90
2453;DHT22;63678;47.994;7.854;2023-04-16T11:30:38;10.30;99.90
2453;DHT22;63678;47.994;7.854;2023-04-16T11:33:11;10.20;99.90
2453;DHT22;63678;47.994;7.854;2023-04-16T11:35:43;10.30;99.90
2453;DHT22;63678;47.994;7.854;2023-04-16T11:38:17;10.40;99.90
2453;DHT22;63678;47.994;7.854;2023-04-16T11:40:49;10.40;99.90
2453;DHT22;63678;47.994;7.854;2023-04-16T11:43:22;10.60;99.90
2453;DHT22;63678;47.994;7.854;2023-04-16T11:45:59;10.70;99.90
2453;DHT22;63678;47.994;7.854;2023-04-16T11:48:49;10.80;99.90
2453;DHT22;63678;47.994;7.854;2023-04-16T11:56:28;11.10;99.90
2453;DHT22;63678;47.994;7.854;2023-04-16T11:59:10;11.10;99.90
2453;DHT22;63678;47.994;7.854;2023-04-16T12:01:52;11.00;99.90
2453;DHT22;63678;47.994;7.854;2023-04-16T12:04:26;11.10;99.90
2453;DHT22;63678;47.994;7.854;2023-04-16T12:07:07;11.10;99.90
2453;DHT22;63678;47.994;7.854;2023-04-16T12:12:29;11.10;99.90
2453;DHT22;63678;47.994;7.854;2023-04-16T12:15:03;11.00;99.90
2453;DHT22;63678;47.994;7.854;2023-04-16T12:17:37;11.10;99.90
2453;DHT22;63678;47.994;7.854;2023-04-16T12:20:12;11.20;99.90
2453;DHT22;63678;47.994;7.854;2023-04-16T12:22:47;11.20;99.90
2453;DHT22;63678;47.994;7.854;2023-04-16T12:25:23;11.20;99.90
2453;DHT22;63678;47.994;7.854;2023-04-16T12:33:16;11.00;99.90
2453;DHT22;63678;47.994;7.854;2023-04-16T12:35:49;10.90;99.90
2453;DHT22;63678;47.994;7.854;2023-04-16T12:38:21;10.80;99.90
2453;DHT22;63678;47.994;7.854;2023-04-16T12:40:55;10.70;99.90
2453;DHT22;63678;47.994;7.854;2023-04-16T12:43:28;10.80;99.90
2453;DHT22;63678;47.994;7.854;2023-04-16T12:46:00;10.80;99.90
2453;DHT22;63678;47.994;7.854;2023-04-16T12:51:08;10.70;99.90
2453;DHT22;63678;47.994;7.854;2023-04-16T12:53:39;10.70;99.90
2453;DHT22;63678;47.994;7.854;2023-04-16T13:01:18;10.60;99.90
2453;DHT22;63678;47.994;7.854;2023-04-16T13:03:50;10.60;99.90
2453;DHT22;63678;47.994;7.854;2023-04-16T13:06:23;10.50;99.90
2453;DHT22;63678;47.994;7.854;2023-04-16T13:08:55;10.50;99.90
2453;DHT22;63678;47.994;7.854;2023-04-16T13:11:27;10.50;99.90
2453;DHT22;63678;47.994;7.854;2023-04-16T13:13:59;10.50;99.90
2453;DHT22;63678;47.994;7.854;2023-04-16T13:19:04;10.50;99.90
2453;DHT22;63678;47.994;7.854;2023-04-16T13:21:36;10.50;99.90
2453;DHT22;63678;47.994;7.854;2023-04-16T13:29:14;10.60;99.90
2453;DHT22;63678;47.994;7.854;2023-04-16T13:36:52;10.60;99.90
2453;DHT22;63678;47.994;7.854;2023-04-16T13:39:24;10.80;99.90
2453;DHT22;63678;47.994;7.854;2023-04-16T13:41:56;11.00;99.90
2453;DHT22;63678;47.994;7.854;2023-04-16T13:47:01;11.40;99.90
2453;DHT22;63678;47.994;7.854;2023-04-16T13:49:33;11.50;99.90
2453;DHT22;63678;47.994;7.854;2023-04-16T13:52:06;11.50;99.90
2453;DHT22;63678;47.994;7.854;2023-04-16T13:54:38;11.60;99.90
2453;DHT22;63678;47.994;7.854;2023-04-16T13:57:23;11.60;99.90
2453;DHT22;63678;47.994;7.854;2023-04-16T13:59:55;11.60;99.90
2453;DHT22;63678;47.994;7.854;2023-04-16T14:02:28;11.60;99.90
2453;DHT22;63678;47.994;7.854;2023-04-16T14:05:00;11.60;99.90
2453;DHT22;63678;47.994;7.854;2023-04-16T14:10:06;11.20;99.90
2453;DHT22;63678;47.994;7.854;2023-04-16T14:15:10;10.90;99.90
2453;DHT22;63678;47.994;7.854;2023-04-16T14:17:45;10.80;99.90
2453;DHT22;63678;47.994;7.854;2023-04-16T14:20:17;10.80;99.90
2453;DHT22;63678;47.994;7.854;2023-04-16T14:22:49;10.70;99.90
2453;DHT22;63678;47.994;7.854;2023-04-16T14:25:22;10.70;99.90
2453;DHT22;63678;47.994;7.854;2023-04-16T14:27:55;10.70;99.90
2453;DHT22;63678;47.994;7.854;2023-04-16T14:30:26;10.80;99.90
2453;DHT22;63678;47.994;7.854;2023-04-16T14:32:59;10.90;99.90
2453;DHT22;63678;47.994;7.854;2023-04-16T14:35:31;10.90;99.90
2453;DHT22;63678;47.994;7.854;2023-04-16T14:38:04;10.90;99.90
2453;DHT22;63678;47.994;7.854;2023-04-16T14:40:36;10.80;99.90
2453;DHT22;63678;47.994;7.854;2023-04-16T14:43:09;10.90;99.90
2453;DHT22;63678;47.994;7.854;2023-04-16T14:45:41;11.00;99.90
2453;DHT22;63678;47.994;7.854;2023-04-16T14:48:13;10.90;99.90
2453;DHT22;63678;47.994;7.854;2023-04-16T14:53:18;10.80;99.90
2453;DHT22;63678;47.994;7.854;2023-04-16T14:55:53;10.80;99.90
2453;DHT22;63678;47.994;7.854;2023-04-16T15:03:30;10.80;99.90
2453;DHT22;63678;47.994;7.854;2023-04-16T15:06:03;10.70;99.90
2453;DHT22;63678;47.994;7.854;2023-04-16T15:08:36;10.60;99.90
2453;DHT22;63678;47.994;7.854;2023-04-16T15:13:41;10.60;99.90
2453;DHT22;63678;47.994;7.854;2023-04-16T15:16:13;10.60;99.90
2453;DHT22;63678;47.994;7.854;2023-04-16T15:18:45;10.60;99.90
2453;DHT22;63678;47.994;7.854;2023-04-16T15:21:17;10.70;99.90
2453;DHT22;63678;47.994;7.854;2023-04-16T15:23:49;10.80;99.90
2453;DHT22;63678;47.994;7.854;2023-04-16T15:26:21;10.80;99.90
2453;DHT22;63678;47.994;7.854;2023-04-16T15:31:26;10.90;99.90
2453;DHT22;63678;47.994;7.854;2023-04-16T15:33:58;11.00;99.90
2453;DHT22;63678;47.994;7.854;2023-04-16T15:41:36;11.00;99.90
2453;DHT22;63678;47.994;7.854;2023-04-16T15:44:30;10.80;99.90
2453;DHT22;63678;47.994;7.854;2023-04-16T15:47:02;10.70;99.90
2453;DHT22;63678;47.994;7.854;2023-04-16T15:49:37;10.70;99.90
2453;DHT22;63678;47.994;7.854;2023-04-16T15:52:10;10.70;99.90
2453;DHT22;63678;47.994;7.854;2023-04-16T15:54:42;10.80;99.90
2453;DHT22;63678;47.994;7.854;2023-04-16T15:59:47;10.80;99.90
2453;DHT22;63678;47.994;7.854;2023-04-16T16:02:36;10.90;99.90
2453;DHT22;63678;47.994;7.854;2023-04-16T16:05:14;11.00;99.90
2453;DHT22;63678;47.994;7.854;2023-04-16T16:07:47;10.90;99.90
2453;DHT22;63678;47.994;7.854;2023-04-16T16:12:52;10.80;99.90
2453;DHT22;63678;47.994;7.854;2023-04-16T16:15:24;10.80;99.90
2453;DHT22;63678;47.994;7.854;2023-04-16T16:17:58;10.80;99.90
2453;DHT22;63678;47.994;7.854;2023-04-16T16:20:30;10.80;99.90
2453;DHT22;63678;47.994;7.854;2023-04-16T16:25:35;10.80;99.90
2453;DHT22;63678;47.994;7.854;2023-04-16T16:28:07;10.80;99.90
2453;DHT22;63678;47.994;7.854;2023-04-16T16:30:39;10.70;99.90
2453;DHT22;63678;47.994;7.854;2023-04-16T16:33:12;10.60;99.90
2453;DHT22;63678;47.994;7.854;2023-04-16T16:35:45;10.60;99.90
2453;DHT22;63678;47.994;7.854;2023-04-16T16:38:17;11.60;99.90
2453;DHT22;63678;47.994;7.854;2023-04-16T16:40:49;12.40;99.90
2453;DHT22;63678;47.994;7.854;2023-04-16T16:43:21;13.30;99.90
2453;DHT22;63678;47.994;7.854;2023-04-16T16:45:53;13.70;99.90
2453;DHT22;63678;47.994;7.854;2023-04-16T16:48:25;12.80;99.90
2453;DHT22;63678;47.994;7.854;2023-04-16T16:50:58;12.00;99.90
2453;DHT22;63678;47.994;7.854;2023-04-16T16:53:30;11.60;99.90
2453;DHT22;63678;47.994;7.854;2023-04-16T16:56:02;11.30;99.90
2453;DHT22;63678;47.994;7.854;2023-04-16T16:58:34;11.10;99.90
2453;DHT22;63678;47.994;7.854;2023-04-16T17:01:06;10.80;99.90
2453;DHT22;63678;47.994;7.854;2023-04-16T17:03:40;10.70;99.90
2453;DHT22;63678;47.994;7.854;2023-04-16T17:06:12;10.60;99.90
2453;DHT22;63678;47.994;7.854;2023-04-16T17:08:45;10.60;99.90
2453;DHT22;63678;47.994;7.854;2023-04-16T17:21:31;10.40;99.90
2453;DHT22;63678;47.994;7.854;2023-04-16T17:24:04;10.30;99.90
2453;DHT22;63678;47.994;7.854;2023-04-16T17:26:36;10.30;99.90
2453;DHT22;63678;47.994;7.854;2023-04-16T17:29:11;10.20;99.90
2453;DHT22;63678;47.994;7.854;2023-04-16T17:31:43;10.20;99.90
2453;DHT22;63678;47.994;7.854;2023-04-16T17:36:50;10.20;99.90
2453;DHT22;63678;47.994;7.854;2023-04-16T17:39:22;10.10;99.90
2453;DHT22;63678;47.994;7.854;2023-04-16T17:41:54;10.00;99.90
2453;DHT22;63678;47.994;7.854;2023-04-16T17:44:29;10.00;99.90
2453;DHT22;63678;47.994;7.854;2023-04-16T17:47:01;9.90;99.90
2453;DHT22;63678;47.994;7.854;2023-04-16T17:49:33;9.90;99.90
2453;DHT22;63678;47.994;7.854;2023-04-16T17:52:05;9.90;99.90
2453;DHT22;63678;47.994;7.854;2023-04-16T18:02:15;9.80;99.90
2453;DHT22;63678;47.994;7.854;2023-04-16T18:04:47;9.70;99.90
2453;DHT22;63678;47.994;7.854;2023-04-16T18:07:20;9.60;99.90
2453;DHT22;63678;47.994;7.854;2023-04-16T18:09:52;9.60;99.90
2453;DHT22;63678;47.994;7.854;2023-04-16T18:12:24;9.70;99.90
2453;DHT22;63678;47.994;7.854;2023-04-16T18:14:56;9.70;99.90
2453;DHT22;63678;47.994;7.854;2023-04-16T18:17:29;9.50;99.90
2453;DHT22;63678;47.994;7.854;2023-04-16T18:20:01;9.70;99.90
2453;DHT22;63678;47.994;7.854;2023-04-16T18:22:36;9.60;99.90
2453;DHT22;63678;47.994;7.854;2023-04-16T18:25:08;9.60;99.90
2453;DHT22;63678;47.994;7.854;2023-04-16T18:27:40;9.60;99.90
2453;DHT22;63678;47.994;7.854;2023-04-16T18:30:13;9.60;99.90
2453;DHT22;63678;47.994;7.854;2023-04-16T18:32:57;11.00;99.90
2453;DHT22;63678;47.994;7.854;2023-04-16T18:35:31;10.40;99.90
2453;DHT22;63678;47.994;7.854;2023-04-16T18:43:09;9.80;99.90
2453;DHT22;63678;47.994;7.854;2023-04-16T18:45:41;9.60;99.90
2453;DHT22;63678;47.994;7.854;2023-04-16T18:48:13;9.50;99.90
2453;DHT22;63678;47.994;7.854;2023-04-16T18:53:18;9.50;99.90
2453;DHT22;63678;47.994;7.854;2023-04-16T18:55:54;9.40;99.90
2453;DHT22;63678;47.994;7.854;2023-04-16T18:58:26;9.40;99.90
2453;DHT22;63678;47.994;7.854;2023-04-16T19:00:58;9.50;99.90
2453;DHT22;63678;47.994;7.854;2023-04-16T19:03:31;9.40;99.90
2453;DHT22;63678;47.994;7.854;2023-04-16T19:06:03;9.30;99.90
2453;DHT22;63678;47.994;7.854;2023-04-16T19:08:35;9.40;99.90
2453;DHT22;63678;47.994;7.854;2023-04-16T19:11:07;9.40;99.90
2453;DHT22;63678;47.994;7.854;2023-04-16T19:13:39;9.40;99.90
2453;DHT22;63678;47.994;7.854;2023-04-16T19:16:11;9.40;99.90
2453;DHT22;63678;47.994;7.854;2023-04-16T19:18:44;9.40;99.90
2453;DHT22;63678;47.994;7.854;2023-04-16T19:21:16;9.40;99.90
2453;DHT22;63678;47.994;7.854;2023-04-16T19:23:48;9.40;99.90
2453;DHT22;63678;47.994;7.854;2023-04-16T19:26:21;9.40;99.90
2453;DHT22;63678;47.994;7.854;2023-04-16T19:28:53;9.50;99.90
2453;DHT22;63678;47.994;7.854;2023-04-16T19:31:25;9.50;99.90
2453;DHT22;63678;47.994;7.854;2023-04-16T19:33:58;9.50;99.90
2453;DHT22;63678;47.994;7.854;2023-04-16T19:36:30;9.60;99.90
2453;DHT22;63678;47.994;7.854;2023-04-16T19:44:08;9.40;99.90
2453;DHT22;63678;47.994;7.854;2023-04-16T19:46:41;9.50;99.90
2453;DHT22;63678;47.994;7.854;2023-04-16T19:49:13;9.40;99.90
2453;DHT22;63678;47.994;7.854;2023-04-16T19:51:45;9.50;99.90
2453;DHT22;63678;47.994;7.854;2023-04-16T19:56:50;9.50;99.90
2453;DHT22;63678;47.994;7.854;2023-04-16T19:59:23;9.40;99.90
2453;DHT22;63678;47.994;7.854;2023-04-16T20:01:59;9.40;99.90
2453;DHT22;63678;47.994;7.854;2023-04-16T20:04:33;9.40;99.90
2453;DHT22;63678;47.994;7.854;2023-04-16T20:09:38;9.40;99.90
2453;DHT22;63678;47.994;7.854;2023-04-16T20:12:10;9.40;99.90
2453;DHT22;63678;47.994;7.854;2023-04-16T20:14:42;9.40;99.90
2453;DHT22;63678;47.994;7.854;2023-04-16T20:17:15;9.30;99.90
2453;DHT22;63678;47.994;7.854;2023-04-16T20:19:49;9.40;99.90